Time;durP1;ratioP1;P1;durP2;ratioP2;P2;SDS_P1;SDS_P2;PMS_P1;PMS_P2;Temp;Humidity;BMP_temperature;BMP_pressure;BME280_temperature;BME280_humidity;BME280_pressure;Samples;Min_cycle;Max_cycle;Signal;HPM_P1;HPM_P2
2022/01/23 00:00:15;;;;;;;0.00;0.00;;;;;;;-1.14;73.64;99270.66;5093329;28;20055;-74
2022/01/23 00:02:41;;;;;;;0.00;0.00;;;;;;;-1.18;73.83;99266.03;5094256;28;20061;-74
2022/01/23 00:05:07;;;;;;;0.00;0.00;;;;;;;-1.25;73.72;99265.97;5096969;28;20035;-74
2022/01/23 00:07:35;;;;;;;0.00;0.00;;;;;;;-1.10;74.00;99283.41;5111751;28;20039;-73
2022/01/23 00:10:02;;;;;;;0.00;0.00;;;;;;;-1.11;73.69;99279.16;5113092;28;20028;-73
2022/01/23 00:12:31;;;;;;;0.00;0.00;;;;;;;-1.20;73.55;99274.06;5112877;28;20457;-73
2022/01/23 00:17:40;;;;;;;0.00;0.00;;;;;;;-1.10;73.61;99268.47;5093246;28;20522;-76
2022/01/23 00:20:12;;;;;;;0.00;0.00;;;;;;;-1.15;73.17;99273.50;5107249;28;20035;-73
2022/01/23 00:30:35;;;;;;;0.00;0.00;;;;;;;-1.23;73.16;99274.47;5092970;28;20043;-76
2022/01/23 00:33:05;;;;;;;1.08;1.08;;;;;;;-1.15;72.81;99295.31;5091321;28;20020;-75
2022/01/23 00:35:32;;;;;;;0.00;0.00;;;;;;;-1.13;72.54;99297.75;5092018;28;20411;-75
2022/01/23 00:37:59;;;;;;;0.00;0.00;;;;;;;-1.43;72.18;99260.41;5092288;28;20031;-78
2022/01/23 00:40:26;;;;;;;0.00;0.00;;;;;;;-1.13;71.86;99306.41;5090678;28;20067;-75
2022/01/23 00:42:56;;;;;;;0.00;0.00;;;;;;;-1.23;71.69;99292.00;5096504;28;20027;-76
2022/01/23 00:45:41;;;;;;;0.00;0.00;;;;;;;-1.25;71.51;99286.16;5105723;28;20036;-75
2022/01/23 00:48:08;;;;;;;0.10;0.10;;;;;;;-1.12;71.60;99312.50;5091047;28;20032;-75
2022/01/23 00:50:45;;;;;;;0.00;0.00;;;;;;;-1.16;71.14;99308.63;5094179;28;20034;-75
2022/01/23 00:53:12;;;;;;;0.00;0.00;;;;;;;-1.29;70.34;99286.53;5111003;28;20051;-75
2022/01/23 00:55:41;;;;;;;0.00;0.00;;;;;;;-1.33;70.71;99302.84;5110616;28;20024;-74
2022/01/23 00:58:07;;;;;;;0.15;0.15;;;;;;;-1.37;70.53;99312.91;5100037;28;20032;-76
2022/01/23 01:00:32;;;;;;;0.00;0.00;;;;;;;-1.45;70.00;99319.13;5091770;28;20051;-74
2022/01/23 01:02:58;;;;;;;0.73;0.73;;;;;;;-1.47;70.17;99309.84;5091621;28;20024;-74
2022/01/23 01:05:26;;;;;;;0.00;0.00;;;;;;;-1.48;69.75;99311.66;5095732;28;20032;-74
2022/01/23 01:07:53;;;;;;;0.08;0.08;;;;;;;-1.52;69.68;99312.22;5091968;28;20051;-73
2022/01/23 01:10:27;;;;;;;0.00;0.00;;;;;;;-1.51;69.25;99316.47;5106571;28;20039;-74
2022/01/23 01:12:58;;;;;;;0.00;0.00;;;;;;;-1.55;69.27;99316.03;5111661;28;20470;-74
2022/01/23 01:34:16;;;;;;;0.00;0.00;;;;;;;-1.73;67.41;99320.91;5091594;28;20054;-73
2022/01/23 01:36:50;;;;;;;0.00;0.00;;;;;;;-1.72;67.57;99314.66;5090147;28;20032;-74
2022/01/23 01:39:19;;;;;;;0.00;0.00;;;;;;;-1.75;66.19;99313.25;5089856;28;20085;-74
2022/01/23 01:41:45;;;;;;;0.00;0.00;;;;;;;-1.73;65.69;99321.75;5091061;28;20123;-75
2022/01/23 01:44:11;;;;;;;0.00;0.00;;;;;;;-1.99;65.14;99275.94;5096502;28;20035;-74
2022/01/23 01:46:37;;;;;;;0.10;0.10;;;;;;;-1.69;65.28;99322.19;5091450;28;20515;-75
2022/01/23 01:49:03;;;;;;;0.00;0.00;;;;;;;-1.73;65.26;99313.03;5091553;28;20036;-75
2022/01/23 01:51:31;;;;;;;0.00;0.00;;;;;;;-1.83;65.57;99297.63;5104775;28;20083;-74
2022/01/23 01:54:05;;;;;;;0.00;0.00;;;;;;;-1.70;66.34;99317.94;5111188;28;20097;-75
2022/01/23 01:56:38;;;;;;;0.00;0.00;;;;;;;-1.72;67.13;99315.50;5110091;28;20407;-77
2022/01/23 01:59:16;;;;;;;0.00;0.00;;;;;;;-1.71;67.08;99327.63;5109592;28;20076;-75
2022/01/23 02:09:56;;;;;;;0.00;0.00;;;;;;;-1.73;68.40;99326.97;5103724;28;20054;-78
2022/01/23 02:17:41;;;;;;;0.00;0.00;;;;;;;-1.59;68.35;99343.63;5117688;28;20050;-77
2022/01/23 02:55:41;;;;;;;0.00;0.00;;;;;;;-1.74;62.54;99367.31;5097033;28;20059;-71
2022/01/23 02:58:10;;;;;;;0.00;0.00;;;;;;;-2.03;62.08;99316.63;5097442;28;20031;-71
2022/01/23 03:00:47;;;;;;;0.00;0.00;;;;;;;-1.82;62.42;99360.38;5097222;28;20479;-70
2022/01/23 03:03:20;;;;;;;0.00;0.00;;;;;;;-1.88;61.59;99360.31;5098948;28;20526;-71
2022/01/23 03:05:57;;;;;;;0.00;0.00;;;;;;;-1.87;61.72;99362.75;5105593;28;20471;-71
2022/01/23 03:08:43;;;;;;;0.00;0.00;;;;;;;-1.93;61.23;99363.47;5111768;28;20114;-72
2022/01/23 03:11:24;;;;;;;0.00;0.00;;;;;;;-1.94;61.64;99361.88;5112752;28;20482;-73
2022/01/23 03:13:57;;;;;;;0.07;0.07;;;;;;;-1.97;60.91;99367.50;5117836;28;20036;-74
2022/01/23 03:29:52;;;;;;;0.00;0.00;;;;;;;-2.07;59.78;99357.31;5093655;28;20467;-75
2022/01/23 03:32:40;;;;;;;0.00;0.00;;;;;;;-2.06;59.62;99364.19;5093843;28;20107;-74
2022/01/23 03:35:06;;;;;;;;;;;;;;;-1.92;59.80;99380.03;5098656;28;20110;-73
2022/01/23 03:37:32;;;;;;;0.00;0.00;;;;;;;-2.03;59.07;99373.47;5100151;28;19996;-73
2022/01/23 03:39:57;;;;;;;0.00;0.00;;;;;;;-1.96;58.57;99380.41;5095091;28;20028;-74
2022/01/23 03:42:24;;;;;;;0.00;0.00;;;;;;;-2.03;59.55;99373.47;5112256;28;20038;-73
2022/01/23 03:47:39;;;;;;;0.23;0.23;;;;;;;-1.95;59.33;99384.66;5113511;28;20163;-73
2022/01/23 03:50:08;;;;;;;0.40;0.40;;;;;;;-1.93;58.88;99389.69;5113533;28;20436;-73
2022/01/23 03:52:34;;;;;;;0.00;0.00;;;;;;;-2.02;58.95;99372.47;5098246;28;20044;-74
2022/01/23 03:55:00;;;;;;;0.65;0.60;;;;;;;-1.92;58.90;99391.31;5101315;28;20536;-72
2022/01/23 03:57:25;;;;;;;0.00;0.00;;;;;;;-1.92;58.83;99385.28;5113247;28;20407;-73
2022/01/23 03:59:51;;;;;;;0.93;0.93;;;;;;;-1.96;58.39;99384.84;5113030;28;20027;-72
2022/01/23 04:02:16;;;;;;;4.70;1.30;;;;;;;-2.00;58.84;99383.56;5113564;28;20082;-74
2022/01/23 04:04:42;;;;;;;0.00;0.00;;;;;;;-1.95;58.28;99389.09;5111394;28;20088;-75
2022/01/23 04:07:11;;;;;;;0.00;0.00;;;;;;;-2.03;58.37;99376.09;5097744;28;20031;-73
2022/01/23 04:09:38;;;;;;;0.30;0.30;;;;;;;-1.93;58.45;99394.94;5109321;28;20479;-75
2022/01/23 04:12:05;;;;;;;0.00;0.00;;;;;;;-2.04;58.52;99375.28;5113508;28;20020;-73
2022/01/23 04:14:33;;;;;;;0.00;0.00;;;;;;;-1.91;58.26;99395.56;5113200;28;20028;-72
2022/01/23 04:17:42;;;;;;;0.00;0.00;;;;;;;-2.06;58.16;99382.53;5111832;28;20024;-72
2022/01/23 05:00:34;;;;;;;0.00;0.00;;;;;;;-2.09;59.07;99437.91;5091973;28;20505;-79
2022/01/23 05:05:32;;;;;;;0.00;0.00;;;;;;;-2.08;58.99;99438.75;5092026;28;20067;-75
2022/01/23 05:08:00;;;;;;;0.00;0.00;;;;;;;-2.15;58.90;99434.25;5094762;28;20042;-75
2022/01/23 05:10:26;;;;;;;0.00;0.00;;;;;;;-2.24;58.74;99421.41;5108139;28;20023;-74
2022/01/23 05:12:51;;;;;;;0.00;0.00;;;;;;;-2.11;59.02;99445.16;5107474;28;20114;-77
2022/01/23 05:15:16;;;;;;;0.00;0.00;;;;;;;-2.23;59.43;99436.94;5111014;28;20467;-79
2022/01/23 05:17:43;;;;;;;0.00;0.00;;;;;;;-2.28;59.14;99423.59;5110286;28;20100;-75
2022/01/23 05:20:11;;;;;;;0.00;0.00;;;;;;;-2.23;59.06;99447.44;5110867;28;20463;-77
2022/01/23 05:22:45;;;;;;;0.00;0.00;;;;;;;-2.32;58.70;99438.88;5111874;28;20024;-75
2022/01/23 05:25:27;;;;;;;0.00;0.00;;;;;;;-2.35;59.31;99436.59;5107631;28;20042;-74
2022/01/23 05:27:54;;;;;;;0.00;0.00;;;;;;;-2.22;59.11;99459.53;5091730;28;20020;-72
2022/01/23 05:30:20;;;;;;;0.00;0.00;;;;;;;-2.30;59.32;99454.38;5090387;28;20036;-72
2022/01/23 05:32:46;;;;;;;0.00;0.00;;;;;;;-2.37;59.83;99448.25;5091371;28;20028;-73
2022/01/23 05:35:14;;;;;;;3.10;0.97;;;;;;;-2.40;59.26;99446.81;5090415;28;20093;-74
2022/01/23 05:37:40;;;;;;;0.00;0.00;;;;;;;-2.36;59.52;99465.59;5107118;28;20062;-75
2022/01/23 05:40:10;;;;;;;1.33;1.33;;;;;;;-2.41;59.26;99445.97;5107672;28;20020;-74
2022/01/23 05:42:35;;;;;;;6.60;2.17;;;;;;;-2.36;59.49;99468.22;5089339;28;20398;-77
2022/01/23 05:45:00;;;;;;;0.00;0.00;;;;;;;-2.36;59.85;99471.63;5090069;28;20020;-72
2022/01/23 05:47:26;;;;;;;0.00;0.00;;;;;;;-2.29;59.19;99479.59;5091550;28;20028;-71
2022/01/23 05:49:51;;;;;;;0.00;0.00;;;;;;;-2.17;59.60;99499.09;5089536;28;20106;-71
2022/01/23 05:52:17;;;;;;;0.20;0.20;;;;;;;-2.19;59.54;99489.81;5097417;28;20127;-72
2022/01/23 05:54:42;;;;;;;0.00;0.00;;;;;;;-2.16;59.39;99473.69;5109649;28;20074;-74
2022/01/23 05:57:08;;;;;;;0.00;0.00;;;;;;;-1.93;59.00;99497.19;5097084;28;20065;-73
2022/01/23 05:59:33;;;;;;;0.00;0.00;;;;;;;-1.86;59.37;99495.44;5091024;28;20028;-73
2022/01/23 06:01:59;;;;;;;0.83;0.83;;;;;;;-1.75;59.00;99485.50;5099089;28;20104;-73
2022/01/23 06:04:25;;;;;;;0.00;0.00;;;;;;;-1.64;59.12;99492.88;5095656;28;20115;-72
2022/01/23 06:06:52;;;;;;;0.00;0.00;;;;;;;-1.53;58.76;99507.31;5094020;28;20460;-71
2022/01/23 06:09:20;;;;;;;0.00;0.00;;;;;;;-1.46;58.57;99509.00;5110167;28;20539;-73
2022/01/23 06:11:46;;;;;;;0.00;0.00;;;;;;;-1.40;58.69;99498.75;5099567;28;20035;-72
2022/01/23 06:14:11;;;;;;;0.00;0.00;;;;;;;-1.31;58.56;99502.91;5090526;28;20028;-73
2022/01/23 06:16:38;;;;;;;0.00;0.00;;;;;;;-1.33;58.40;99492.59;5104221;28;20027;-73
2022/01/23 06:19:04;;;;;;;0.30;0.30;;;;;;;-1.14;57.94;99517.41;5110060;28;20063;-73
2022/01/23 06:21:29;;;;;;;0.10;0.10;;;;;;;-1.06;57.64;99521.72;5110998;28;20493;-73
2022/01/23 06:24:07;;;;;;;0.10;0.10;;;;;;;-1.05;58.02;99527.78;5109606;28;20162;-76
2022/01/23 06:26:48;;;;;;;0.00;0.00;;;;;;;-0.92;57.75;99527.09;5109599;28;20542;-75
2022/01/23 06:29:16;;;;;;;0.00;0.00;;;;;;;-0.84;57.46;99535.66;5111565;28;20164;-75
2022/01/23 06:31:43;;;;;;;0.00;0.00;;;;;;;-0.79;57.20;99532.47;5110468;28;20030;-75
2022/01/23 06:34:10;;;;;;;0.00;0.00;;;;;;;-0.76;57.23;99529.44;5111155;28;20043;-78
2022/01/23 06:36:36;;;;;;;0.93;0.93;;;;;;;-0.75;56.66;99530.28;5109384;28;20119;-78
2022/01/23 06:39:04;;;;;;;0.00;0.00;;;;;;;-0.70;56.80;99522.63;5097019;28;20059;-78
2022/01/23 06:41:30;;;;;;;0.00;0.00;;;;;;;-0.65;56.22;99518.44;5124981;28;20030;-77
2022/01/23 06:43:55;;;;;;;0.00;0.00;;;;;;;-0.72;55.82;99517.56;5122475;28;20027;-76
2022/01/23 06:46:21;;;;;;;0.00;0.00;;;;;;;-0.69;55.77;99511.13;5109868;28;20032;-76
2022/01/23 06:48:46;;;;;;;1.02;1.02;;;;;;;-0.64;55.46;99527.13;5111147;28;20463;-76
2022/01/23 06:51:12;;;;;;;0.00;0.00;;;;;;;-0.60;54.83;99528.34;5109873;28;20120;-78
2022/01/23 06:53:37;;;;;;;0.00;0.00;;;;;;;-0.66;55.22;99526.47;5109530;28;20039;-77
2022/01/23 06:56:03;;;;;;;2.10;1.65;;;;;;;-0.56;55.62;99526.16;5125332;27;20036;-74
2022/01/23 06:58:28;;;;;;;0.00;0.00;;;;;;;-0.46;55.51;99529.28;5114393;28;20028;-77
2022/01/23 07:00:54;;;;;;;0.00;0.00;;;;;;;-0.36;55.00;99534.19;5116207;27;20035;-79
2022/01/23 07:03:19;;;;;;;0.00;0.00;;;;;;;-0.30;53.98;99530.78;5111856;28;20506;-79
2022/01/23 07:05:45;;;;;;;0.00;0.00;;;;;;;-0.25;54.42;99541.53;5114533;27;20394;-77
2022/01/23 07:08:10;;;;;;;0.00;0.00;;;;;;;-0.32;54.10;99543.31;5116610;27;20031;-81
2022/01/23 07:10:35;;;;;;;0.10;0.10;;;;;;;-0.38;54.38;99539.66;5111482;28;20035;-82
2022/01/23 07:13:01;;;;;;;0.00;0.00;;;;;;;-0.43;54.19;99542.00;5111959;28;20406;-83
2022/01/23 07:15:27;;;;;;;0.00;0.00;;;;;;;-0.51;54.89;99536.91;5105696;28;20031;-85
2022/01/23 07:17:52;;;;;;;0.45;0.45;;;;;;;-0.54;54.59;99534.66;5111638;28;20645;-81
2022/01/23 07:20:18;;;;;;;0.00;0.00;;;;;;;-0.62;55.52;99534.78;5102935;28;20115;-74
2022/01/23 07:22:43;;;;;;;0.00;0.00;;;;;;;-0.65;55.60;99536.00;5122378;27;20102;-77
2022/01/23 07:25:09;;;;;;;0.00;0.00;;;;;;;-0.71;55.84;99532.34;5122935;27;20386;-78
2022/01/23 07:27:42;;;;;;;0.00;0.00;;;;;;;-0.72;56.47;99545.63;5116979;27;20055;-80
2022/01/23 07:30:20;;;;;;;1.33;0.55;;;;;;;-0.84;56.55;99540.91;5112810;28;20034;-74
2022/01/23 07:32:45;;;;;;;0.00;0.00;;;;;;;-0.74;56.86;99542.41;5112676;28;20046;-80
2022/01/23 07:35:11;;;;;;;0.00;0.00;;;;;;;-0.70;57.65;99535.75;5113123;28;20040;-86
2022/01/23 07:37:36;;;;;;;0.00;0.00;;;;;;;-0.65;57.34;99531.56;5112729;28;20031;-78
2022/01/23 07:40:02;;;;;;;0.00;0.00;;;;;;;-0.51;56.67;99547.44;5112863;28;20103;-78
2022/01/23 07:42:27;;;;;;;2.08;1.98;;;;;;;-0.43;56.95;99528.88;5112729;27;20032;-75
2022/01/23 07:44:53;;;;;;;1.02;0.98;;;;;;;-0.30;56.77;99527.34;5103414;28;20043;-86
2022/01/23 07:47:22;;;;;;;0.63;0.63;;;;;;;-0.14;56.39;99534.13;5103947;28;20122;-86
2022/01/23 07:49:49;;;;;;;0.00;0.00;;;;;;;-0.05;56.07;99528.50;5112216;28;20024;-85
2022/01/23 07:52:18;;;;;;;0.03;0.03;;;;;;;0.04;55.08;99521.28;5111281;28;20118;-79
2022/01/23 07:54:44;;;;;;;0.00;0.00;;;;;;;0.23;55.60;99534.69;5102299;27;20188;-89
2022/01/23 07:57:09;;;;;;;0.00;0.00;;;;;;;0.27;55.32;99526.22;5123893;27;20076;-79
2022/01/23 07:59:35;;;;;;;0.38;0.38;;;;;;;0.32;53.79;99509.84;5129187;27;20039;-76
2022/01/23 08:02:01;;;;;;;0.17;0.17;;;;;;;0.45;54.05;99525.69;5098740;28;20488;-76
2022/01/23 08:04:27;;;;;;;0.35;0.35;;;;;;;0.54;54.59;99522.84;5107602;27;20106;-78
2022/01/23 08:07:08;;;;;;;0.05;0.05;;;;;;;0.62;55.26;99518.25;5111463;28;20168;-78
2022/01/23 08:09:33;;;;;;;0.00;0.00;;;;;;;0.77;54.50;99523.34;5103603;28;20043;-78
2022/01/23 08:11:59;;;;;;;0.10;0.10;;;;;;;0.88;54.31;99513.22;5091987;28;20411;-79
2022/01/23 08:14:24;;;;;;;0.00;0.00;;;;;;;0.97;53.19;99514.66;5111406;28;20489;-81
2022/01/23 08:16:49;;;;;;;0.00;0.00;;;;;;;1.05;52.69;99518.91;5105065;28;20028;-78
2022/01/23 08:19:15;;;;;;;0.00;0.00;;;;;;;1.11;51.98;99523.34;5114056;28;20487;-83
2022/01/23 08:21:40;;;;;;;0.00;0.00;;;;;;;1.16;51.28;99517.50;5112005;28;20023;-80
2022/01/23 08:24:06;;;;;;;0.00;0.00;;;;;;;1.16;50.37;99510.41;5115777;28;20023;-87
2022/01/23 08:26:32;;;;;;;0.00;0.00;;;;;;;1.33;50.58;99517.91;5132614;28;20023;-88
2022/01/23 08:28:57;;;;;;;0.10;0.10;;;;;;;1.36;49.28;99514.88;5130233;28;20049;-88
2022/01/23 08:31:23;;;;;;;0.77;0.43;;;;;;;1.42;49.73;99519.31;5094346;28;20039;-79
2022/01/23 08:33:48;;;;;;;0.00;0.00;;;;;;;1.49;48.71;99522.75;5098640;28;20422;-80
2022/01/23 08:36:15;;;;;;;0.00;0.00;;;;;;;1.54;48.35;99511.63;5104012;27;20703;-79
2022/01/23 08:38:41;;;;;;;0.00;0.00;;;;;;;1.66;48.59;99525.78;5115512;27;20093;-76
2022/01/23 08:43:48;;;;;;;0.00;0.00;;;;;;;1.79;46.66;99524.13;5110763;28;20019;-79
2022/01/23 08:46:14;;;;;;;0.00;0.00;;;;;;;1.83;46.51;99514.78;5102652;28;20027;-80
2022/01/23 08:48:41;;;;;;;0.43;0.43;;;;;;;1.91;46.00;99519.84;5110270;28;20043;-77
2022/01/23 08:51:07;;;;;;;0.00;0.00;;;;;;;1.96;45.39;99517.38;5109183;28;20061;-77
2022/01/23 08:53:32;;;;;;;0.00;0.00;;;;;;;1.95;44.98;99523.69;5106538;28;20079;-79
2022/01/23 08:55:58;;;;;;;0.08;0.08;;;;;;;1.89;43.99;99516.59;5110324;28;20034;-79
2022/01/23 08:58:23;;;;;;;0.00;0.00;;;;;;;1.92;45.16;99516.19;5103086;28;20024;-76
2022/01/23 09:00:49;;;;;;;0.00;0.00;;;;;;;1.89;45.49;99517.41;5104072;27;20037;-81
2022/01/23 09:03:14;;;;;;;0.00;0.00;;;;;;;1.92;45.29;99516.19;5111826;27;20023;-79
2022/01/23 09:05:40;;;;;;;0.10;0.10;;;;;;;1.95;44.94;99512.31;5111261;27;20123;-79
2022/01/23 09:08:05;;;;;;;0.00;0.00;;;;;;;1.96;44.19;99513.94;5112161;27;20096;-77
2022/01/23 09:10:40;;;;;;;0.00;0.00;;;;;;;2.06;44.09;99516.94;5110413;28;20612;-75
2022/01/23 09:13:29;;;;;;;0.03;0.03;;;;;;;2.00;43.61;99502.78;5110548;28;20115;-78
2022/01/23 09:15:55;;;;;;;0.00;0.00;;;;;;;2.16;44.27;99511.22;5106874;28;20582;-77
2022/01/23 09:18:20;;;;;;;0.00;0.00;;;;;;;2.16;43.92;99505.94;5093156;28;20026;-76
2022/01/23 09:20:46;;;;;;;0.20;0.20;;;;;;;2.22;44.46;99499.84;5110350;28;20490;-77
2022/01/23 09:23:11;;;;;;;0.10;0.10;;;;;;;2.28;43.84;99514.81;5111571;27;20035;-77
2022/01/23 09:25:36;;;;;;;0.00;0.00;;;;;;;2.26;44.48;99497.59;5113003;27;20075;-82
2022/01/23 09:28:12;;;;;;;0.00;0.00;;;;;;;2.33;44.15;99498.38;5091390;28;20119;-83
2022/01/23 09:30:39;;;;;;;0.30;0.30;;;;;;;2.35;43.90;99494.50;5092161;28;20032;-79
2022/01/23 09:33:04;;;;;;;0.00;0.00;;;;;;;2.42;43.24;99488.38;5110270;28;20038;-79
2022/01/23 09:35:30;;;;;;;0.00;0.00;;;;;;;2.38;43.10;99482.69;5121343;27;20027;-76
2022/01/23 09:37:56;;;;;;;0.00;0.00;;;;;;;2.40;43.18;99478.84;5115266;27;20054;-83
2022/01/23 09:40:21;;;;;;;0.00;0.00;;;;;;;2.43;42.76;99477.63;5130319;27;20121;-76
2022/01/23 09:42:54;;;;;;;0.00;0.00;;;;;;;2.44;42.60;99476.59;5112908;27;20031;-79
2022/01/23 09:45:21;;;;;;;0.00;0.00;;;;;;;2.46;42.69;99466.63;5109863;28;20046;-85
2022/01/23 09:47:46;;;;;;;0.00;0.00;;;;;;;2.49;43.07;99458.28;5109408;28;20051;-78
2022/01/23 09:50:14;;;;;;;0.30;0.30;;;;;;;2.52;43.63;99472.91;5110114;28;20662;-82
2022/01/23 09:52:41;;;;;;;0.00;0.00;;;;;;;2.52;41.99;99468.41;5109915;27;20138;-76
2022/01/23 09:55:11;;;;;;;0.00;0.00;;;;;;;2.51;41.64;99463.34;5111413;28;20084;-85
2022/01/23 09:57:41;;;;;;;4.10;2.83;;;;;;;2.56;42.66;99456.44;5110375;28;20395;-77
2022/01/23 10:00:10;;;;;;;0.00;0.00;;;;;;;2.59;41.69;99455.19;5110202;28;20019;-81
2022/01/23 10:02:35;;;;;;;0.00;0.00;;;;;;;2.54;41.52;99452.38;5111511;28;20031;-77
2022/01/23 10:05:03;;;;;;;0.00;0.00;;;;;;;2.55;41.07;99446.06;5110051;28;20020;-81
2022/01/23 10:07:28;;;;;;;0.00;0.00;;;;;;;2.54;40.79;99437.34;5107734;28;20406;-79
2022/01/23 10:10:06;;;;;;;0.05;0.05;;;;;;;2.48;39.58;99422.34;5108007;28;20027;-80
2022/01/23 10:12:32;;;;;;;0.00;0.00;;;;;;;2.55;40.45;99427.56;5100544;28;20027;-72
2022/01/23 10:14:58;;;;;;;0.10;0.10;;;;;;;2.55;40.42;99420.47;5097283;28;20043;-73
2022/01/23 10:17:23;;;;;;;0.00;0.00;;;;;;;2.61;40.86;99439.91;5098430;28;20027;-73
2022/01/23 10:19:50;;;;;;;0.00;0.00;;;;;;;2.59;41.38;99420.84;5108836;28;20035;-72
2022/01/23 10:22:16;;;;;;;0.00;0.00;;;;;;;2.68;41.22;99427.47;5109094;28;20062;-74
2022/01/23 10:24:42;;;;;;;1.00;1.00;;;;;;;2.70;41.75;99433.38;5102144;28;20054;-73
2022/01/23 10:27:08;;;;;;;1.38;1.27;;;;;;;2.81;41.49;99433.72;5103222;28;20028;-78
2022/01/23 10:29:37;;;;;;;0.00;0.00;;;;;;;2.83;41.46;99436.91;5112222;28;20038;-77
2022/01/23 10:32:25;;;;;;;0.00;0.00;;;;;;;2.83;41.03;99429.00;5102372;28;20035;-77
2022/01/23 10:34:59;;;;;;;0.00;0.00;;;;;;;2.83;41.02;99426.34;5101651;28;20028;-77
2022/01/23 10:37:30;;;;;;;0.00;0.00;;;;;;;2.85;41.50;99421.69;5110287;28;20027;-78
2022/01/23 10:39:57;;;;;;;0.00;0.00;;;;;;;2.90;41.05;99424.47;5104880;28;20025;-75
2022/01/23 10:47:49;;;;;;;1.02;0.70;;;;;;;2.85;40.56;99397.91;5098000;28;20055;-79
2022/01/23 10:50:15;;;;;;;0.10;0.10;;;;;;;2.85;40.53;99405.81;5102588;28;20092;-77
2022/01/23 10:52:43;;;;;;;0.40;0.40;;;;;;;2.87;40.08;99412.50;5112306;28;20130;-77
2022/01/23 10:55:12;;;;;;;;;;;;;;;2.77;39.44;99422.75;5100664;28;20076;-77
2022/01/23 10:57:43;;;;;;;0.03;0.03;;;;;;;2.68;39.72;99401.06;5113315;28;19951;-76
2022/01/23 11:00:19;;;;;;;0.00;0.00;;;;;;;2.75;39.72;99408.97;5113230;28;20450;-88
2022/01/23 11:02:44;;;;;;;0.00;0.00;;;;;;;2.70;39.98;99406.94;5112734;28;20031;-79
2022/01/23 11:05:15;;;;;;;0.00;0.00;;;;;;;2.68;40.46;99395.00;5107045;28;20092;-76
2022/01/23 11:07:43;;;;;;;0.00;0.00;;;;;;;2.66;40.29;99389.94;5093736;28;20055;-75
2022/01/23 11:10:14;;;;;;;0.70;0.70;;;;;;;2.33;40.45;99356.66;5092501;28;20024;-78
2022/01/23 11:17:56;;;;;;;0.00;0.00;;;;;;;2.46;40.29;99400.63;5094584;28;20085;-79
2022/01/23 11:20:38;;;;;;;0.00;0.00;;;;;;;2.47;41.33;99407.53;5094958;28;20036;-80
2022/01/23 11:23:24;;;;;;;0.00;0.00;;;;;;;2.43;42.04;99406.34;5101974;28;20036;-80
2022/01/23 11:25:55;;;;;;;0.00;0.00;;;;;;;2.46;42.16;99405.09;5108391;28;20494;-82
2022/01/23 11:28:50;;;;;;;0.43;0.43;;;;;;;2.50;42.65;99408.94;5092235;28;20035;-82
2022/01/23 11:31:18;;;;;;;1.00;0.70;;;;;;;2.46;41.67;99405.91;5087102;28;20062;-80
2022/01/23 11:33:45;;;;;;;0.00;0.00;;;;;;;2.47;41.12;99417.28;5111804;28;20054;-79
2022/01/23 11:36:11;;;;;;;0.00;0.00;;;;;;;2.33;40.42;99403.34;5101538;28;20297;-80
2022/01/23 11:38:39;;;;;;;0.00;0.00;;;;;;;2.31;41.01;99403.56;5092245;28;20089;-76
2022/01/23 11:55:05;;;;;;;0.00;0.00;;;;;;;2.20;39.71;99394.50;5089127;28;20603;-81
2022/01/23 11:57:33;;;;;;;0.00;0.00;;;;;;;2.17;39.48;99409.94;5101323;28;20684;-78
2022/01/23 12:00:01;;;;;;;;;;;;;;;2.16;40.25;99403.03;5091255;28;20118;-77
2022/01/23 12:02:29;;;;;;;0.10;0.10;;;;;;;2.12;40.43;99405.28;5090878;28;19923;-79
2022/01/23 12:05:14;;;;;;;0.00;0.00;;;;;;;2.13;40.37;99409.56;5090540;28;20024;-81
2022/01/23 12:07:42;;;;;;;0.00;0.00;;;;;;;2.08;40.01;99399.63;5106160;28;20289;-78
2022/01/23 12:10:31;;;;;;;0.10;0.10;;;;;;;2.03;40.80;99385.47;5108755;28;20047;-78
2022/01/23 12:13:56;;;;;;;0.00;0.00;;;;;;;2.13;40.66;99398.22;5105407;27;20062;-77
2022/01/23 12:18:48;;;;;;;;;;;;;;;2.15;41.38;99404.88;5119705;27;20032;-79
2022/01/23 12:21:27;;;;;;;0.00;0.00;;;;;;;2.10;40.59;99398.63;5110406;28;19917;-77
2022/01/23 12:24:03;;;;;;;;;;;;;;;2.11;41.42;99397.59;5090833;28;20036;-77
2022/01/23 12:26:29;;;;;;;0.00;0.00;;;;;;;2.07;41.47;99395.38;5089919;28;19912;-77
2022/01/23 12:28:54;;;;;;;0.00;0.00;;;;;;;2.02;41.86;99382.00;5090233;28;20040;-77
2022/01/23 12:31:25;;;;;;;0.90;0.63;;;;;;;2.03;41.55;99388.13;5093061;28;20116;-82
2022/01/23 12:33:53;;;;;;;0.00;0.00;;;;;;;1.75;41.72;99353.13;5110054;28;20495;-77
2022/01/23 12:36:25;;;;;;;0.00;0.00;;;;;;;1.95;41.83;99397.06;5110461;28;20081;-77
2022/01/23 12:38:54;;;;;;;0.00;0.00;;;;;;;1.77;41.39;99374.03;5109436;28;20034;-78
2022/01/23 12:41:28;;;;;;;0.00;0.00;;;;;;;1.88;41.40;99393.63;5112129;28;20043;-78
2022/01/23 12:44:04;;;;;;;0.00;0.00;;;;;;;1.83;42.06;99388.19;5111783;27;20111;-80
2022/01/23 12:46:42;;;;;;;0.00;0.00;;;;;;;1.76;41.95;99382.97;5091700;28;20040;-77
2022/01/23 12:49:34;;;;;;;1.35;1.25;;;;;;;1.86;41.97;99396.50;5105952;28;20398;-80
2022/01/23 12:52:05;;;;;;;1.08;0.55;;;;;;;1.88;42.32;99396.28;5101713;28;20039;-78
2022/01/23 12:54:33;;;;;;;0.00;0.00;;;;;;;1.88;42.39;99391.84;5096593;28;20044;-84
2022/01/23 12:57:10;;;;;;;0.75;0.75;;;;;;;1.85;42.90;99383.53;5090925;28;20036;-82
2022/01/23 12:59:37;;;;;;;0.00;0.00;;;;;;;1.89;42.24;99387.34;5105321;28;20041;-82
2022/01/23 13:02:11;;;;;;;0.00;0.00;;;;;;;1.92;42.44;99390.38;5117125;27;20031;-83
2022/01/23 13:04:39;;;;;;;0.00;0.00;;;;;;;1.97;42.55;99400.31;5087276;28;20509;-78
2022/01/23 13:07:13;;;;;;;0.00;0.00;;;;;;;1.94;42.64;99397.28;5090003;28;20139;-89
2022/01/23 13:12:11;;;;;;;0.00;0.00;;;;;;;1.92;42.06;99387.75;5116937;27;20027;-82
2022/01/23 13:14:57;;;;;;;0.00;0.00;;;;;;;1.98;42.05;99394.00;5120484;27;20114;-77
2022/01/23 13:34:37;;;;;;;0.00;0.00;;;;;;;1.75;43.04;99407.72;5090701;28;20036;-74
2022/01/23 13:37:17;;;;;;;0.20;0.20;;;;;;;1.68;43.20;99412.19;5097634;28;20023;-74
2022/01/23 13:39:46;;;;;;;0.60;0.60;;;;;;;1.73;44.06;99428.19;5094102;28;20051;-74
2022/01/23 13:59:27;;;;;;;0.00;0.00;;;;;;;1.60;44.38;99414.03;5095576;28;20481;-73
2022/01/23 14:04:27;;;;;;;0.00;0.00;;;;;;;1.52;44.61;99411.63;5102683;28;20090;-76
2022/01/23 14:06:53;;;;;;;0.00;0.00;;;;;;;1.49;44.58;99416.50;5088438;28;20124;-77
2022/01/23 14:09:20;;;;;;;0.00;0.00;;;;;;;1.48;44.60;99425.41;5089711;28;20793;-76
2022/01/23 14:11:46;;;;;;;1.25;1.25;;;;;;;1.47;44.78;99431.72;5116802;28;20031;-76
2022/01/23 14:14:21;;;;;;;0.00;0.00;;;;;;;1.42;44.72;99432.34;5110104;28;20028;-77
2022/01/23 14:16:50;;;;;;;0.00;0.00;;;;;;;1.39;45.18;99430.09;5104475;28;20375;-74
2022/01/23 14:19:15;;;;;;;;;;;;;;;1.43;45.39;99434.78;5106770;28;20031;-76
2022/01/23 14:21:45;;;;;;;0.00;0.00;;;;;;;1.41;45.49;99438.63;5102253;28;20409;-77
2022/01/23 14:24:11;;;;;;;0.00;0.00;;;;;;;1.37;45.97;99437.44;5088133;28;20478;-75
2022/01/23 14:26:36;;;;;;;0.00;0.00;;;;;;;1.34;46.83;99435.19;5092109;28;20115;-78
2022/01/23 14:29:06;;;;;;;0.00;0.00;;;;;;;1.27;47.40;99445.75;5100711;28;20483;-75
2022/01/23 14:31:37;;;;;;;0.00;0.00;;;;;;;1.13;49.76;99433.63;5089446;28;20126;-77
2022/01/23 14:34:05;;;;;;;0.00;0.00;;;;;;;1.01;52.56;99447.38;5088676;28;20511;-76
2022/01/23 14:36:34;;;;;;;0.50;0.50;;;;;;;0.86;55.27;99438.88;5109655;28;20024;-79
2022/01/23 14:39:11;;;;;;;0.00;0.00;;;;;;;0.72;55.63;99438.06;5107698;28;20028;-77
2022/01/23 14:41:40;;;;;;;0.00;0.00;;;;;;;0.61;57.04;99437.66;5107336;28;20088;-77
2022/01/23 14:44:26;;;;;;;0.10;0.10;;;;;;;0.44;59.37;99431.97;5108932;28;20076;-73
2022/01/23 14:46:57;;;;;;;0.00;0.00;;;;;;;0.20;61.85;99438.59;5087327;28;20038;-77
2022/01/23 14:49:26;;;;;;;0.00;0.00;;;;;;;0.18;63.45;99450.31;5102003;28;20107;-75
2022/01/23 14:51:54;;;;;;;0.00;0.00;;;;;;;-0.05;64.40;99460.16;5108684;28;20035;-74
2022/01/23 14:54:25;;;;;;;0.00;0.00;;;;;;;-0.13;64.71;99454.25;5108841;28;20063;-79
2022/01/23 14:56:51;;;;;;;0.00;0.00;;;;;;;-0.28;65.71;99449.94;5107959;28;20664;-75
2022/01/23 14:59:16;;;;;;;0.10;0.10;;;;;;;-0.39;66.61;99447.84;5101215;28;20145;-76
2022/01/23 15:01:44;;;;;;;23.52;3.15;;;;;;;-0.43;68.49;99459.75;5088725;28;20032;-89
2022/01/23 15:04:11;;;;;;;0.00;0.00;;;;;;;-0.43;68.29;99468.44;5109852;28;20051;-79
2022/01/23 15:06:44;;;;;;;0.00;0.00;;;;;;;-0.52;68.95;99464.34;5109853;28;20053;-79
2022/01/23 15:09:12;;;;;;;0.00;0.00;;;;;;;-0.57;69.36;99467.56;5109790;28;20054;-78
2022/01/23 15:11:38;;;;;;;0.00;0.00;;;;;;;-0.53;70.31;99473.22;5110104;28;20027;-78
2022/01/23 15:14:05;;;;;;;0.00;0.00;;;;;;;-0.57;69.88;99477.25;5110726;28;20130;-72